createdAt,value
2023-02-19T00:01:38.921Z,7.99
2023-02-19T00:04:15.282Z,8.03
2023-02-19T00:06:41.822Z,7.96
2023-02-19T00:09:12.582Z,7.95
2023-02-19T00:11:39.120Z,7.94
2023-02-19T00:14:06.005Z,7.98
2023-02-19T00:16:37.104Z,7.96
2023-02-19T00:19:05.203Z,8.07
2023-02-19T00:21:31.813Z,7.99
2023-02-19T00:23:59.987Z,7.95
2023-02-19T00:26:26.798Z,7.92
2023-02-19T00:28:55.321Z,7.87
2023-02-19T00:31:21.959Z,7.92
2023-02-19T00:33:48.966Z,7.86
2023-02-19T00:36:15.674Z,7.81
2023-02-19T00:38:42.489Z,7.77
2023-02-19T00:41:21.339Z,7.77
2023-02-19T00:43:55.083Z,7.69
2023-02-19T00:46:25.984Z,7.66
2023-02-19T00:48:52.632Z,7.66
2023-02-19T00:51:20.212Z,7.69
2023-02-19T00:53:46.717Z,7.66
2023-02-19T00:56:13.202Z,7.69
2023-02-19T00:58:39.726Z,7.65
2023-02-19T01:01:06.602Z,7.62
2023-02-19T01:03:35.906Z,7.59
2023-02-19T01:06:02.555Z,7.60
2023-02-19T01:08:30.945Z,7.55
2023-02-19T01:10:57.930Z,7.59
2023-02-19T01:13:24.594Z,7.59
2023-02-19T01:15:51.213Z,7.48
2023-02-19T01:18:17.819Z,7.63
2023-02-19T01:20:44.482Z,7.60
2023-02-19T01:23:11.712Z,7.59
2023-02-19T01:25:39.532Z,7.64
2023-02-19T01:28:06.210Z,7.70
2023-02-19T01:30:36.371Z,7.69
2023-02-19T01:33:07.116Z,7.73
2023-02-19T01:35:33.728Z,7.76
2023-02-19T01:38:00.382Z,7.91
2023-02-19T01:40:27.080Z,7.92
2023-02-19T01:42:53.542Z,7.95
2023-02-19T01:45:25.491Z,7.94
2023-02-19T01:47:58.446Z,7.97
2023-02-19T01:50:26.712Z,7.92
2023-02-19T01:52:53.177Z,7.88
2023-02-19T01:55:19.657Z,7.83
2023-02-19T01:57:47.015Z,7.83
2023-02-19T02:00:14.713Z,7.78
2023-02-19T02:02:42.283Z,7.78
2023-02-19T02:05:45.569Z,7.76
2023-02-19T02:08:31.145Z,7.80
2023-02-19T02:10:57.778Z,7.73
2023-02-19T02:13:24.250Z,7.59
2023-02-19T02:16:15.681Z,7.70
2023-02-19T02:18:58.260Z,7.66
2023-02-19T02:21:47.705Z,7.64
2023-02-19T02:24:25.429Z,7.68
2023-02-19T02:27:00.967Z,7.74
2023-02-19T02:29:55.855Z,7.66
2023-02-19T02:32:25.988Z,7.59
2023-02-19T02:35:01.355Z,7.55
2023-02-19T02:37:28.416Z,7.56
2023-02-19T02:39:54.924Z,7.64
2023-02-19T02:42:30.082Z,7.61
2023-02-19T02:45:16.070Z,7.62
2023-02-19T02:47:45.056Z,7.63
2023-02-19T02:50:18.572Z,7.65
2023-02-19T02:53:03.787Z,7.67
2023-02-19T02:55:31.388Z,7.68
2023-02-19T02:57:57.853Z,7.72
2023-02-19T03:00:24.473Z,7.78
2023-02-19T03:02:50.944Z,7.83
2023-02-19T03:05:39.106Z,7.83
2023-02-19T03:08:10.933Z,7.86
2023-02-19T03:10:48.775Z,7.88
2023-02-19T03:13:54.409Z,7.88
2023-02-19T03:16:42.955Z,7.87
2023-02-19T03:19:19.253Z,7.86
2023-02-19T03:22:12.000Z,7.88
2023-02-19T03:25:00.830Z,7.81
2023-02-19T03:27:28.795Z,7.86
2023-02-19T03:29:56.317Z,7.83
2023-02-19T03:32:30.182Z,7.81
2023-02-19T03:35:01.820Z,7.80
2023-02-19T03:37:49.738Z,7.78
2023-02-19T03:40:16.292Z,7.81
2023-02-19T03:42:48.825Z,7.78
2023-02-19T03:45:38.679Z,7.81
2023-02-19T03:48:28.426Z,7.76
2023-02-19T03:51:21.250Z,7.80
2023-02-19T03:53:53.650Z,7.81
2023-02-19T03:56:34.051Z,7.84
2023-02-19T03:59:03.800Z,7.83
2023-02-19T04:01:36.493Z,7.87
2023-02-19T04:04:07.179Z,7.87
2023-02-19T04:06:33.637Z,7.81
2023-02-19T04:09:01.944Z,7.80
2023-02-19T04:11:28.947Z,7.76
2023-02-19T04:13:56.931Z,7.77
2023-02-19T04:16:27.244Z,7.76
2023-02-19T04:18:54.959Z,7.76
2023-02-19T04:21:21.877Z,7.73
2023-02-19T04:23:48.563Z,7.78
2023-02-19T04:26:15.118Z,7.75
2023-02-19T04:28:42.966Z,7.81
2023-02-19T04:31:10.050Z,7.83
2023-02-19T04:33:37.226Z,7.83
2023-02-19T04:36:03.929Z,7.89
2023-02-19T04:38:30.549Z,7.86
2023-02-19T04:40:57.262Z,7.86
2023-02-19T04:43:23.794Z,7.81
2023-02-19T04:45:50.297Z,7.86
2023-02-19T04:48:16.822Z,7.86
2023-02-19T04:50:43.347Z,7.87
2023-02-19T04:53:09.939Z,7.86
2023-02-19T04:55:37.965Z,7.82
2023-02-19T04:58:04.629Z,7.83
2023-02-19T05:00:31.848Z,7.85
2023-02-19T05:02:58.355Z,7.84
2023-02-19T05:05:24.860Z,7.80
2023-02-19T05:07:51.400Z,7.87
2023-02-19T05:10:17.913Z,7.92
2023-02-19T05:12:44.406Z,7.88
2023-02-19T05:15:10.948Z,7.94
2023-02-19T05:17:37.778Z,7.92
2023-02-19T05:20:04.456Z,7.84
2023-02-19T05:22:30.997Z,7.78
2023-02-19T05:24:57.477Z,7.75
2023-02-19T05:27:23.956Z,7.75
2023-02-19T05:29:50.460Z,7.70
2023-02-19T05:32:17.028Z,7.68
2023-02-19T05:34:43.548Z,7.64
2023-02-19T05:37:10.073Z,7.63
2023-02-19T05:39:36.549Z,7.54
2023-02-19T05:42:03.141Z,7.49
2023-02-19T05:44:29.658Z,7.49
2023-02-19T05:46:56.122Z,7.50
2023-02-19T05:49:22.640Z,7.52
2023-02-19T05:51:52.281Z,7.51
2023-02-19T05:54:18.774Z,7.49
2023-02-19T05:56:45.260Z,7.50
2023-02-19T05:59:18.516Z,7.46
2023-02-19T06:01:45.041Z,7.36
2023-02-19T06:04:11.882Z,7.50
2023-02-19T06:06:38.732Z,7.56
2023-02-19T06:09:05.500Z,7.48
2023-02-19T06:11:32.045Z,7.48
2023-02-19T06:13:58.643Z,7.46
2023-02-19T06:16:25.247Z,7.46
2023-02-19T06:18:51.807Z,7.52
2023-02-19T06:21:18.545Z,7.44
2023-02-19T06:23:45.168Z,7.37
2023-02-19T06:26:15.624Z,7.40
2023-02-19T06:28:42.252Z,7.38
2023-02-19T06:31:09.419Z,7.37
2023-02-19T06:33:36.444Z,7.36
2023-02-19T06:36:03.863Z,7.35
2023-02-19T06:38:30.585Z,7.32
2023-02-19T06:41:01.091Z,7.39
2023-02-19T06:43:27.746Z,7.47
2023-02-19T06:45:54.748Z,7.38
2023-02-19T06:48:21.214Z,7.34
2023-02-19T06:50:48.876Z,7.34
2023-02-19T06:53:15.402Z,7.41
2023-02-19T06:55:41.881Z,7.40
2023-02-19T06:58:08.503Z,7.44
2023-02-19T07:00:35.212Z,7.52
2023-02-19T07:03:03.335Z,7.48
2023-02-19T07:05:31.082Z,7.48
2023-02-19T07:07:57.587Z,7.48
2023-02-19T07:10:24.081Z,7.45
2023-02-19T07:12:50.676Z,7.48
2023-02-19T07:15:17.221Z,7.51
2023-02-19T07:17:43.704Z,7.57
2023-02-19T07:20:10.452Z,7.56
2023-02-19T07:22:36.923Z,7.52
2023-02-19T07:25:03.401Z,7.60
2023-02-19T07:27:29.941Z,7.59
2023-02-19T07:29:56.465Z,7.55
2023-02-19T07:32:22.955Z,7.61
2023-02-19T07:34:49.497Z,7.57
2023-02-19T07:37:16.023Z,7.62
2023-02-19T07:39:42.480Z,7.60
2023-02-19T07:42:09.006Z,7.58
2023-02-19T07:44:35.505Z,7.59
2023-02-19T07:47:02.012Z,7.63
2023-02-19T07:49:28.780Z,7.62
2023-02-19T07:51:55.593Z,7.62
2023-02-19T07:54:22.098Z,7.70
2023-02-19T07:56:48.876Z,7.72
2023-02-19T07:59:15.857Z,7.69
2023-02-19T08:02:01.179Z,7.72
2023-02-19T08:04:27.713Z,7.76
2023-02-19T08:06:54.275Z,7.71
2023-02-19T08:09:20.752Z,7.74
2023-02-19T08:12:05.725Z,7.82
2023-02-19T08:14:32.285Z,7.81
2023-02-19T08:16:59.105Z,7.92
2023-02-19T08:19:25.588Z,7.96
2023-02-19T08:21:53.445Z,7.96
2023-02-19T08:24:19.973Z,8.00
2023-02-19T08:26:46.449Z,8.06
2023-02-19T08:29:13.006Z,8.09
2023-02-19T08:31:39.660Z,8.02
2023-02-19T08:34:06.245Z,8.08
2023-02-19T08:36:32.834Z,8.01
2023-02-19T08:38:59.729Z,7.96
2023-02-19T08:41:26.244Z,8.00
2023-02-19T08:43:52.783Z,7.97
2023-02-19T08:46:19.400Z,8.06
2023-02-19T08:48:45.965Z,8.03
2023-02-19T08:51:12.821Z,7.99
2023-02-19T08:53:40.175Z,7.98
2023-02-19T08:56:07.041Z,7.98
2023-02-19T08:58:33.691Z,7.94
2023-02-19T09:01:00.280Z,7.99
2023-02-19T09:03:26.804Z,8.04
2023-02-19T09:05:53.312Z,8.09
2023-02-19T09:08:19.904Z,8.17
2023-02-19T09:10:46.403Z,8.17
2023-02-19T09:13:12.921Z,8.17
2023-02-19T09:15:39.487Z,8.19
2023-02-19T09:18:06.157Z,8.23
2023-02-19T09:20:32.676Z,8.31
2023-02-19T09:22:59.278Z,8.39
2023-02-19T09:25:25.838Z,8.52
2023-02-19T09:27:56.073Z,8.42
2023-02-19T09:30:22.954Z,8.52
2023-02-19T09:32:49.491Z,8.52
2023-02-19T09:35:16.106Z,8.53
2023-02-19T09:37:42.571Z,8.46
2023-02-19T09:40:09.692Z,8.44
2023-02-19T09:42:36.508Z,8.55
2023-02-19T09:45:03.284Z,8.62
2023-02-19T09:47:30.593Z,8.51
2023-02-19T09:49:59.899Z,8.52
2023-02-19T09:52:38.702Z,8.48
2023-02-19T09:55:17.818Z,8.35
2023-02-19T09:57:44.749Z,8.34
2023-02-19T10:00:11.368Z,8.46
2023-02-19T10:02:37.926Z,8.39
2023-02-19T10:05:09.854Z,8.41
2023-02-19T10:07:43.362Z,8.43
2023-02-19T10:10:21.795Z,8.48
2023-02-19T10:12:50.595Z,8.49
2023-02-19T10:15:19.405Z,8.63
2023-02-19T10:17:45.897Z,8.60
2023-02-19T10:20:16.257Z,8.55
2023-02-19T10:22:42.746Z,8.65
2023-02-19T10:25:13.670Z,8.69
2023-02-19T10:27:40.231Z,8.63
2023-02-19T10:30:07.310Z,8.62
2023-02-19T10:32:33.832Z,8.65
2023-02-19T10:35:16.530Z,8.60
2023-02-19T10:37:47.436Z,8.61
2023-02-19T10:40:25.660Z,8.56
2023-02-19T10:43:02.890Z,8.60
2023-02-19T10:45:29.334Z,8.57
2023-02-19T10:47:55.813Z,8.67
2023-02-19T10:50:27.967Z,8.57
2023-02-19T10:52:55.919Z,8.54
2023-02-19T10:55:28.853Z,8.46
2023-02-19T10:57:56.205Z,8.42
2023-02-19T11:00:26.841Z,8.33
2023-02-19T11:03:15.363Z,8.26
2023-02-19T11:05:51.225Z,8.20
2023-02-19T11:08:21.777Z,8.46
2023-02-19T11:10:48.353Z,8.59
2023-02-19T11:13:16.681Z,8.65
2023-02-19T11:15:43.200Z,8.64
2023-02-19T11:18:12.476Z,8.79
2023-02-19T11:20:59.063Z,8.81
2023-02-19T11:23:34.136Z,8.81
2023-02-19T11:26:02.907Z,8.80
2023-02-19T11:28:34.056Z,8.72
2023-02-19T11:31:18.974Z,8.74
2023-02-19T11:34:09.861Z,8.61
2023-02-19T11:36:37.251Z,8.73
2023-02-19T11:39:28.930Z,8.75
2023-02-19T11:42:13.680Z,8.84
2023-02-19T11:45:01.510Z,8.88
2023-02-19T11:47:58.154Z,8.98
2023-02-19T11:50:38.433Z,9.00
2023-02-19T11:53:28.933Z,9.05
2023-02-19T11:56:14.033Z,9.11
2023-02-19T11:59:00.804Z,9.14
2023-02-19T12:01:30.587Z,9.14
2023-02-19T12:04:08.953Z,9.12
2023-02-19T12:06:44.204Z,9.10
2023-02-19T12:09:16.539Z,9.12
2023-02-19T12:12:11.028Z,9.11
2023-02-19T12:14:56.491Z,9.05
2023-02-19T12:17:57.296Z,9.09
2023-02-19T12:20:35.417Z,9.11
2023-02-19T12:23:16.885Z,9.12
2023-02-19T12:25:54.814Z,9.17
2023-02-19T12:28:34.732Z,9.15
2023-02-19T12:31:20.224Z,9.05
2023-02-19T12:34:31.239Z,9.21
2023-02-19T12:37:17.956Z,9.30
2023-02-19T12:39:50.406Z,9.41
2023-02-19T12:42:35.030Z,9.49
2023-02-19T12:45:20.455Z,9.48
2023-02-19T12:48:02.190Z,9.49
2023-02-19T12:50:28.668Z,9.29
2023-02-19T12:53:01.747Z,9.25
2023-02-19T12:55:32.855Z,9.40
2023-02-19T12:58:01.363Z,9.12
2023-02-19T13:00:39.660Z,8.84
2023-02-19T13:03:11.806Z,8.41
2023-02-19T13:05:46.691Z,8.14
2023-02-19T13:08:27.158Z,8.08
2023-02-19T13:10:58.033Z,8.23
2023-02-19T13:13:34.965Z,8.18
2023-02-19T13:16:15.042Z,8.11
2023-02-19T13:18:57.078Z,8.22
2023-02-19T13:21:43.832Z,8.15
2023-02-19T13:24:16.860Z,8.16
2023-02-19T13:27:23.898Z,8.37
2023-02-19T13:30:15.887Z,8.58
2023-02-19T13:32:54.459Z,8.77
2023-02-19T13:35:39.361Z,9.03
2023-02-19T13:38:07.693Z,9.13
2023-02-19T13:40:35.954Z,9.14
2023-02-19T13:43:04.268Z,9.18
2023-02-19T13:45:41.470Z,9.24
2023-02-19T13:48:27.820Z,9.26
2023-02-19T13:51:12.670Z,9.39
2023-02-19T13:53:45.066Z,9.45
2023-02-19T13:56:29.728Z,9.74
2023-02-19T13:59:01.463Z,9.88
2023-02-19T14:01:56.954Z,9.70
2023-02-19T14:04:32.213Z,9.66
2023-02-19T14:07:04.972Z,10.01
2023-02-19T14:09:37.223Z,9.86
2023-02-19T14:12:15.468Z,9.93
2023-02-19T14:14:43.003Z,9.86
2023-02-19T14:17:09.413Z,9.71
2023-02-19T14:19:41.762Z,9.70
2023-02-19T14:22:45.266Z,9.65
2023-02-19T14:25:26.752Z,9.61
2023-02-19T14:28:14.934Z,9.63
2023-02-19T14:31:21.092Z,9.49
2023-02-19T14:33:52.812Z,9.41
2023-02-19T14:36:25.181Z,9.39
2023-02-19T14:38:58.989Z,9.17
2023-02-19T14:41:25.981Z,9.16
2023-02-19T14:43:53.583Z,9.23
2023-02-19T14:46:39.730Z,9.18
2023-02-19T14:49:19.306Z,9.25
2023-02-19T14:51:48.253Z,9.33
2023-02-19T14:54:20.621Z,9.27
2023-02-19T14:56:48.661Z,9.22
2023-02-19T14:59:25.202Z,9.37
2023-02-19T15:02:21.029Z,9.38
2023-02-19T15:04:47.588Z,9.02
2023-02-19T15:07:26.709Z,9.03
2023-02-19T15:09:54.555Z,8.98
2023-02-19T15:12:25.475Z,8.96
2023-02-19T15:14:55.362Z,9.01
2023-02-19T15:17:29.602Z,8.95
2023-02-19T15:19:56.491Z,8.85
2023-02-19T15:22:24.302Z,8.93
2023-02-19T15:24:50.798Z,8.77
2023-02-19T15:27:21.912Z,8.58
2023-02-19T15:29:51.715Z,8.43
2023-02-19T15:32:22.689Z,8.36
2023-02-19T15:35:03.054Z,8.32
2023-02-19T15:37:31.406Z,8.22
2023-02-19T15:39:59.488Z,8.06
2023-02-19T15:42:28.532Z,7.91
2023-02-19T15:44:59.375Z,7.88
2023-02-19T15:47:38.243Z,7.78
2023-02-19T15:50:08.627Z,7.76
2023-02-19T15:52:41.726Z,7.68
2023-02-19T15:55:39.632Z,7.61
2023-02-19T15:58:30.538Z,7.46
2023-02-19T16:00:59.155Z,7.28
2023-02-19T16:03:26.388Z,7.17
2023-02-19T16:06:16.226Z,7.08
2023-02-19T16:08:44.011Z,6.98
2023-02-19T16:11:29.863Z,7.07
2023-02-19T16:14:15.926Z,6.99
2023-02-19T16:16:42.516Z,7.01
2023-02-19T16:19:09.791Z,7.00
2023-02-19T16:21:36.267Z,6.97
2023-02-19T16:24:13.405Z,6.95
2023-02-19T16:26:40.754Z,6.88
2023-02-19T16:29:16.967Z,6.86
2023-02-19T16:31:57.468Z,6.74
2023-02-19T16:34:40.909Z,6.66
2023-02-19T16:37:30.514Z,6.58
2023-02-19T16:40:20.266Z,6.52
2023-02-19T16:42:49.881Z,6.55
2023-02-19T16:45:16.869Z,6.42
2023-02-19T16:47:48.349Z,6.38
2023-02-19T16:50:15.868Z,6.44
2023-02-19T16:52:54.687Z,6.53
2023-02-19T16:55:21.197Z,6.44
2023-02-19T16:57:47.758Z,6.40
2023-02-19T17:00:22.091Z,6.29
2023-02-19T17:02:50.044Z,6.38
2023-02-19T17:05:16.891Z,6.35
2023-02-19T17:07:43.558Z,6.26
2023-02-19T17:10:17.408Z,6.27
2023-02-19T17:12:43.915Z,6.14
2023-02-19T17:15:11.485Z,6.02
2023-02-19T17:17:38.045Z,6.06
2023-02-19T17:20:24.054Z,5.98
2023-02-19T17:22:50.637Z,6.11
2023-02-19T17:25:17.180Z,6.30
2023-02-19T17:27:43.692Z,6.29
2023-02-19T17:30:12.257Z,6.27
2023-02-19T17:32:38.798Z,6.22
2023-02-19T17:35:05.720Z,6.36
2023-02-19T17:37:32.250Z,6.32
2023-02-19T17:39:58.746Z,6.29
2023-02-19T17:42:25.904Z,6.29
2023-02-19T17:44:53.522Z,6.30
2023-02-19T17:47:21.249Z,6.26
2023-02-19T17:49:47.861Z,6.32
2023-02-19T17:52:17.493Z,6.30
2023-02-19T17:54:44.105Z,6.25
2023-02-19T17:57:10.684Z,6.28
2023-02-19T17:59:37.159Z,6.24
2023-02-19T18:02:03.729Z,6.27
2023-02-19T18:04:30.272Z,6.34
2023-02-19T18:06:56.770Z,6.24
2023-02-19T18:09:23.390Z,6.28
2023-02-19T18:11:50.000Z,6.18
2023-02-19T18:14:16.488Z,5.99
2023-02-19T18:16:49.756Z,6.14
2023-02-19T18:19:17.030Z,6.16
2023-02-19T18:21:43.543Z,6.30
2023-02-19T18:24:10.079Z,6.34
2023-02-19T18:26:36.770Z,6.50
2023-02-19T18:29:03.283Z,6.47
2023-02-19T18:31:32.614Z,6.46
2023-02-19T18:33:59.409Z,6.41
2023-02-19T18:36:26.060Z,6.45
2023-02-19T18:38:52.558Z,6.51
2023-02-19T18:41:21.018Z,6.38
2023-02-19T18:43:48.196Z,6.51
2023-02-19T18:46:14.768Z,6.70
2023-02-19T18:48:41.548Z,6.63
2023-02-19T18:51:11.561Z,6.58
2023-02-19T18:53:38.216Z,6.55
2023-02-19T18:56:05.487Z,6.64
2023-02-19T18:58:32.024Z,6.68
2023-02-19T19:00:59.430Z,6.56
2023-02-19T19:03:26.067Z,6.61
2023-02-19T19:05:52.677Z,6.57
2023-02-19T19:08:19.141Z,6.59
2023-02-19T19:10:45.634Z,6.59
2023-02-19T19:13:12.110Z,6.57
2023-02-19T19:15:41.236Z,6.60
2023-02-19T19:18:08.446Z,6.50
2023-02-19T19:20:34.912Z,6.53
2023-02-19T19:23:01.406Z,6.45
2023-02-19T19:25:28.247Z,6.42
2023-02-19T19:27:54.860Z,6.41
2023-02-19T19:30:21.523Z,6.36
2023-02-19T19:32:49.575Z,6.25
2023-02-19T19:35:19.596Z,6.29
2023-02-19T19:37:46.251Z,6.31
2023-02-19T19:40:13.073Z,6.35
2023-02-19T19:42:39.666Z,6.25
2023-02-19T19:45:06.697Z,6.33
2023-02-19T19:47:33.301Z,6.39
2023-02-19T19:49:59.869Z,6.60
2023-02-19T19:52:26.345Z,6.51
2023-02-19T19:54:54.118Z,6.58
2023-02-19T19:57:20.655Z,6.57
2023-02-19T19:59:51.211Z,6.47
2023-02-19T20:02:18.417Z,6.47
2023-02-19T20:04:44.946Z,6.53
2023-02-19T20:07:11.467Z,6.51
2023-02-19T20:09:37.969Z,6.60
2023-02-19T20:12:04.635Z,6.58
2023-02-19T20:14:31.137Z,6.65
2023-02-19T20:16:57.683Z,6.74
2023-02-19T20:19:24.217Z,6.73
2023-02-19T20:21:53.918Z,6.74
2023-02-19T20:24:25.138Z,6.71
2023-02-19T20:26:53.274Z,6.69
2023-02-19T20:29:19.831Z,6.71
2023-02-19T20:31:49.804Z,6.71
2023-02-19T20:34:16.354Z,6.62
2023-02-19T20:36:43.932Z,6.60
2023-02-19T20:39:10.654Z,6.69
2023-02-19T20:41:37.155Z,6.65
2023-02-19T20:44:03.798Z,6.64
2023-02-19T20:46:30.393Z,6.62
2023-02-19T20:48:57.108Z,6.55
2023-02-19T20:51:23.803Z,6.57
2023-02-19T20:53:50.309Z,6.60
2023-02-19T20:56:16.814Z,6.60
2023-02-19T20:58:43.329Z,6.62
2023-02-19T21:01:11.713Z,6.68
2023-02-19T21:03:38.224Z,6.71
2023-02-19T21:06:04.800Z,6.74
2023-02-19T21:08:31.321Z,6.68
2023-02-19T21:10:57.818Z,6.66
2023-02-19T21:13:24.368Z,6.71
2023-02-19T21:15:51.018Z,6.57
2023-02-19T21:18:19.808Z,6.68
2023-02-19T21:20:46.474Z,6.67
2023-02-19T21:23:13.936Z,6.63
2023-02-19T21:25:40.411Z,6.60
2023-02-19T21:28:09.062Z,6.61
2023-02-19T21:30:36.028Z,6.52
2023-02-19T21:33:02.961Z,6.52
2023-02-19T21:35:29.450Z,6.50
2023-02-19T21:37:56.257Z,6.47
2023-02-19T21:40:23.406Z,6.51
2023-02-19T21:42:49.910Z,6.48
2023-02-19T21:45:16.568Z,6.50
2023-02-19T21:47:43.589Z,6.54
2023-02-19T21:50:10.346Z,6.47
2023-02-19T21:52:36.882Z,6.60
2023-02-19T21:55:03.572Z,6.61
2023-02-19T21:57:30.153Z,6.56
2023-02-19T21:59:56.737Z,6.61
2023-02-19T22:02:24.285Z,6.64
2023-02-19T22:04:54.561Z,6.52
2023-02-19T22:07:21.703Z,6.62
2023-02-19T22:09:49.522Z,6.66
2023-02-19T22:12:16.679Z,6.62
2023-02-19T22:14:43.211Z,6.62
2023-02-19T22:17:09.679Z,6.59
2023-02-19T22:19:36.266Z,6.66
2023-02-19T22:22:02.849Z,6.68
2023-02-19T22:24:29.324Z,6.63
2023-02-19T22:26:56.386Z,6.58
2023-02-19T22:29:22.962Z,6.59
2023-02-19T22:31:49.532Z,6.53
2023-02-19T22:34:16.250Z,6.48
2023-02-19T22:36:43.155Z,6.59
2023-02-19T22:39:19.083Z,6.50
2023-02-19T22:41:45.832Z,6.50
2023-02-19T22:44:12.350Z,6.51
2023-02-19T22:46:38.853Z,6.51
2023-02-19T22:49:05.994Z,6.50
2023-02-19T22:51:32.775Z,6.50
2023-02-19T22:53:59.737Z,6.49
2023-02-19T22:56:27.201Z,6.48
2023-02-19T22:58:54.497Z,6.44
2023-02-19T23:01:21.169Z,6.28
2023-02-19T23:03:55.569Z,6.35
2023-02-19T23:06:24.311Z,6.38
2023-02-19T23:08:51.378Z,6.41
2023-02-19T23:11:25.301Z,6.33
2023-02-19T23:13:51.871Z,6.20
2023-02-19T23:16:18.438Z,6.18
2023-02-19T23:18:45.044Z,6.08
2023-02-19T23:21:11.595Z,5.77
2023-02-19T23:23:40.670Z,5.85
2023-02-19T23:26:07.897Z,5.64
2023-02-19T23:28:34.432Z,5.85
2023-02-19T23:31:00.987Z,5.88
2023-02-19T23:33:27.612Z,5.88
2023-02-19T23:35:54.091Z,5.89
2023-02-19T23:38:20.665Z,5.92
2023-02-19T23:40:47.274Z,5.99
2023-02-19T23:43:13.755Z,6.07
2023-02-19T23:45:40.319Z,6.00
2023-02-19T23:48:07.062Z,5.97
2023-02-19T23:50:33.540Z,5.85
2023-02-19T23:53:00.179Z,6.04
2023-02-19T23:55:26.718Z,6.12
2023-02-19T23:57:53.566Z,6.15
